Time;durP1;ratioP1;P1;durP2;ratioP2;P2;SDS_P1;SDS_P2;PMS_P1;PMS_P2;Temp;Humidity;BMP_temperature;BMP_pressure;BME280_temperature;BME280_humidity;BME280_pressure;Samples;Min_cycle;Max_cycle;Signal;HPM_P1;HPM_P2
2023/10/25 00:02:02;;;;;;;;;;;;;;;26.74;42.88;93242.59;4948014;28;6845;-61
2023/10/25 00:05:02;;;;;;;;;;;;;;;26.74;42.62;93246.09;4964943;28;7424;-63
2023/10/25 00:07:29;;;;;;;;;;;;;;;26.74;43.07;93234.31;4969880;28;7267;-63
2023/10/25 00:09:56;;;;;;;;;;;;;;;26.73;42.67;93228.06;4956694;28;7314;-64
2023/10/25 00:12:26;;;;;;;;;;;;;;;26.73;42.97;93238.38;4976551;28;7202;-64
2023/10/25 00:15:04;;;;;;;;;;;;;;;26.72;42.67;93231.34;4975484;28;9792;-64
2023/10/25 00:17:34;;;;;;;;;;;;;;;26.71;42.60;93224.34;4969293;28;6992;-63
2023/10/25 00:20:03;;;;;;;;;;;;;;;26.71;42.71;93218.81;4960283;28;8762;-64
2023/10/25 00:22:29;;;;;;;;;;;;;;;26.68;43.03;93228.22;5045102;28;7464;-63
2023/10/25 00:25:40;;;;;;;;;;;;;;;26.68;42.83;93237.22;5053678;28;7466;-64
2023/10/25 00:28:11;;;;;;;;;;;;;;;26.68;42.64;93228.94;4957571;28;8387;-64
2023/10/25 00:30:57;;;;;;;;;;;;;;;26.64;42.74;93222.31;4950588;28;6988;-63
2023/10/25 00:33:28;;;;;;;;;;;;;;;26.66;42.90;93228.00;4968826;28;9465;-64
2023/10/25 00:36:04;;;;;;;;;;;;;;;26.65;42.85;93218.25;4980565;28;8761;-63
2023/10/25 00:38:39;;;;;;;;;;;;;;;26.62;43.13;93220.06;4958011;28;7238;-63
2023/10/25 00:41:08;;;;;;;;;;;;;;;26.62;42.73;93224.88;4933906;28;8766;-64
2023/10/25 00:43:43;;;;;;;;;;;;;;;26.63;43.17;93223.56;4963442;28;6896;-64
2023/10/25 00:46:15;;;;;;;;;;;;;;;26.64;43.28;93216.78;4953738;28;9454;-63
2023/10/25 00:48:48;;;;;;;;;;;;;;;26.63;42.97;93223.56;4955946;28;7337;-64
2023/10/25 00:51:21;;;;;;;;;;;;;;;26.60;42.41;93214.38;4949031;28;8915;-63
2023/10/25 00:53:53;;;;;;;;;;;;;;;26.61;43.33;93221.38;4967027;28;7233;-64
2023/10/25 00:56:33;;;;;;;;;;;;;;;26.57;43.00;93212.72;4955757;28;7904;-64
2023/10/25 00:59:12;;;;;;;;;;;;;;;26.60;43.08;93213.66;4944549;28;7221;-64
2023/10/25 01:01:41;;;;;;;;;;;;;;;26.58;42.86;93210.69;4966835;28;9001;-64
2023/10/25 01:04:11;;;;;;;;;;;;;;;26.56;43.36;93204.97;4961947;28;7075;-64
2023/10/25 01:06:38;;;;;;;;;;;;;;;26.55;43.39;93200.75;5035931;28;7592;-64
2023/10/25 01:09:04;;;;;;;;;;;;;;;26.56;43.06;93197.44;5040465;28;7222;-64
2023/10/25 01:11:30;;;;;;;;;;;;;;;26.55;42.69;93207.00;5010965;28;9226;-63
2023/10/25 01:13:56;;;;;;;;;;;;;;;26.52;43.10;93201.84;5050010;28;7234;-56
2023/10/25 01:16:24;;;;;;;;;;;;;;;26.53;43.50;93197.81;5038383;28;9319;-57
2023/10/25 01:19:19;;;;;;;;;;;;;;;26.53;43.13;93197.81;5033438;28;7438;-57
2023/10/25 01:21:46;;;;;;;;;;;;;;;26.53;42.97;93192.28;4937761;28;9234;-57
2023/10/25 01:24:12;;;;;;;;;;;;;;;26.53;43.05;93187.53;4948191;28;7568;-57
2023/10/25 01:27:08;;;;;;;;;;;;;;;26.52;43.01;93188.78;4964544;28;7922;-57
2023/10/25 01:30:04;;;;;;;;;;;;;;;26.51;43.00;93184.53;4931627;28;7268;-57
2023/10/25 01:32:30;;;;;;;;;;;;;;;26.51;43.33;93194.84;4859848;29;8810;-57
2023/10/25 01:34:58;;;;;;;;;;;;;;;26.50;43.30;93196.13;4871381;29;6921;-56
2023/10/25 01:37:33;;;;;;;;;;;;;;;26.47;42.91;93173.13;4869596;29;9061;-57
2023/10/25 01:40:07;;;;;;;;;;;;;;;26.51;43.24;93175.56;4861497;29;8951;-57
2023/10/25 01:42:43;;;;;;;;;;;;;;;26.47;43.18;93178.66;4868115;29;7263;-57
2023/10/25 01:45:27;;;;;;;;;;;;;;;26.48;43.02;93171.13;4879681;29;7248;-57
2023/10/25 01:48:01;;;;;;;;;;;;;;;26.50;42.80;93176.81;4876205;29;9290;-57
2023/10/25 01:50:35;;;;;;;;;;;;;;;26.47;43.10;93170.38;4876754;29;7242;-56
2023/10/25 01:53:09;;;;;;;;;;;;;;;26.43;42.89;93149.97;4876407;29;7108;-57
2023/10/25 01:55:53;;;;;;;;;;;;;;;26.46;43.08;93159.91;4873776;29;7018;-57
2023/10/25 01:58:20;;;;;;;;;;;;;;;26.44;43.14;93154.94;4896880;29;7051;-57
2023/10/25 02:01:15;;;;;;;;;;;;;;;26.48;42.75;93160.09;4896737;29;8211;-57
2023/10/25 02:03:40;;;;;;;;;;;;;;;26.46;42.94;93154.38;4859975;29;8795;-57
2023/10/25 02:06:11;;;;;;;;;;;;;;;26.45;43.15;93147.38;4905658;29;7169;-57
2023/10/25 02:08:54;;;;;;;;;;;;;;;26.41;43.22;93149.78;4937611;28;9030;-57
2023/10/25 02:11:29;;;;;;;;;;;;;;;26.44;43.48;93148.69;4972385;28;9090;-57
2023/10/25 02:14:01;;;;;;;;;;;;;;;26.40;43.32;93154.56;4946440;28;9083;-57
2023/10/25 02:16:30;;;;;;;;;;;;;;;26.41;43.72;93147.75;4958438;28;9053;-57
2023/10/25 02:18:57;;;;;;;;;;;;;;;26.42;43.34;93148.50;4970651;28;7236;-57
2023/10/25 02:22:07;;;;;;;;;;;;;;;26.41;42.74;93147.75;4957809;28;7000;-57
2023/10/25 02:24:45;;;;;;;;;;;;;;;26.40;42.67;93145.56;4968082;28;7460;-60
2023/10/25 02:27:15;;;;;;;;;;;;;;;26.40;42.80;93142.78;4965609;28;7156;-61
2023/10/25 02:29:44;;;;;;;;;;;;;;;26.37;43.23;93130.84;4965011;28;7274;-61
2023/10/25 02:32:19;;;;;;;;;;;;;;;26.40;43.26;93129.75;4966884;28;8244;-61
2023/10/25 02:35:15;;;;;;;;;;;;;;;26.39;43.44;93128.28;4949500;28;8712;-61
2023/10/25 02:38:17;;;;;;;;;;;;;;;26.39;43.22;93133.03;4965322;28;7678;-61
2023/10/25 02:40:42;;;;;;;;;;;;;;;26.38;43.03;93131.56;4916771;29;8861;-61
2023/10/25 02:43:08;;;;;;;;;;;;;;;26.38;43.42;93131.56;4924778;28;9098;-61
2023/10/25 02:45:36;;;;;;;;;;;;;;;26.39;43.21;93138.56;4916335;29;9422;-61
2023/10/25 02:48:33;;;;;;;;;;;;;;;26.37;43.23;93132.84;4918211;29;7070;-60
2023/10/25 02:51:02;;;;;;;;;;;;;;;26.38;42.54;93132.28;4846091;29;7475;-60
2023/10/25 02:53:28;;;;;;;;;;;;;;;26.36;42.62;93128.63;4849448;29;8714;-61
2023/10/25 02:56:00;;;;;;;;;;;;;;;26.37;42.96;93132.84;4856286;29;9088;-61
2023/10/25 02:58:36;;;;;;;;;;;;;;;26.35;42.97;93127.16;4860670;29;6969;-60
2023/10/25 03:01:03;;;;;;;;;;;;;;;26.34;43.25;93114.66;4850695;29;8647;-61
2023/10/25 03:03:59;;;;;;;;;;;;;;;26.36;43.14;93125.88;4882414;29;7336;-61
2023/10/25 03:06:25;;;;;;;;;;;;;;;26.34;42.78;93122.94;4859988;29;7082;-61
2023/10/25 03:08:53;;;;;;;;;;;;;;;26.34;42.79;93118.13;4842549;29;8146;-61
2023/10/25 03:11:44;;;;;;;;;;;;;;;26.35;43.26;93107.84;4859591;29;7186;-60
2023/10/25 03:14:12;;;;;;;;;;;;;;;26.33;43.12;93113.16;4860364;29;7407;-61
2023/10/25 03:16:38;;;;;;;;;;;;;;;26.32;43.15;93100.69;4844335;29;7244;-61
2023/10/25 03:19:11;;;;;;;;;;;;;;;26.32;43.20;93111.72;4860184;29;7180;-60
2023/10/25 03:21:38;;;;;;;;;;;;;;;26.31;42.99;93107.47;4860811;29;7248;-61
2023/10/25 03:24:21;;;;;;;;;;;;;;;26.31;42.99;93099.94;4864103;29;9313;-62
2023/10/25 03:26:48;;;;;;;;;;;;;;;26.31;43.32;93083.41;4904909;28;9078;-61
2023/10/25 03:29:16;;;;;;;;;;;;;;;26.32;43.02;93090.38;4960979;28;8711;-61
2023/10/25 03:31:49;;;;;;;;;;;;;;;26.31;43.04;93094.44;4983260;28;7323;-61
2023/10/25 03:34:19;;;;;;;;;;;;;;;26.31;43.26;93088.19;5005967;28;7225;-60
2023/10/25 03:37:07;;;;;;;;;;;;;;;26.30;43.06;93086.69;4980418;28;9205;-61
2023/10/25 03:39:34;;;;;;;;;;;;;;;26.29;43.60;93090.75;4973983;28;7579;-61
2023/10/25 03:42:15;;;;;;;;;;;;;;;26.26;43.33;93083.56;4999508;28;7066;-61
2023/10/25 03:44:56;;;;;;;;;;;;;;;26.26;43.25;93086.31;5018404;28;7242;-61
2023/10/25 03:47:27;;;;;;;;;;;;;;;26.29;42.82;93079.72;5058822;28;7268;-61
2023/10/25 03:49:54;;;;;;;;;;;;;;;26.27;42.98;93074.75;5044974;28;7273;-60
2023/10/25 03:52:46;;;;;;;;;;;;;;;26.25;43.01;93071.06;5024609;28;7247;-61
2023/10/25 03:55:13;;;;;;;;;;;;;;;26.20;42.99;93060.94;5047394;28;7332;-61
2023/10/25 03:57:40;;;;;;;;;;;;;;;26.25;43.37;93068.31;5054220;28;8838;-60
2023/10/25 04:00:08;;;;;;;;;;;;;;;26.23;43.44;93055.06;5053170;28;9219;-60
2023/10/25 04:02:44;;;;;;;;;;;;;;;26.21;43.51;93063.16;5027461;28;9238;-61
2023/10/25 04:05:15;;;;;;;;;;;;;;;26.24;43.40;93062.06;5048246;28;8508;-61
2023/10/25 04:07:56;;;;;;;;;;;;;;;26.25;43.36;93062.81;5045608;28;6997;-61
2023/10/25 04:10:27;;;;;;;;;;;;;;;26.23;43.63;93059.84;5044748;28;7228;-60
2023/10/25 04:12:53;;;;;;;;;;;;;;;26.22;43.00;93047.34;5039444;28;7406;-61
2023/10/25 04:15:21;;;;;;;;;;;;;;;26.23;43.14;93048.84;5045146;28;6990;-61
2023/10/25 04:18:15;;;;;;;;;;;;;;;26.23;43.62;93049.56;5021724;28;9050;-61
2023/10/25 04:20:51;;;;;;;;;;;;;;;26.23;43.14;93048.84;4964308;28;7290;-61
2023/10/25 04:23:20;;;;;;;;;;;;;;;26.20;43.57;93047.16;4970022;28;7445;-61
2023/10/25 04:25:47;;;;;;;;;;;;;;;26.17;42.82;93052.50;4959123;28;7195;-61
2023/10/25 04:28:19;;;;;;;;;;;;;;;26.18;43.09;93064.25;4962713;28;8781;-60
2023/10/25 04:30:54;;;;;;;;;;;;;;;26.19;43.29;93054.69;4968558;28;7253;-61
2023/10/25 04:33:29;;;;;;;;;;;;;;;26.16;43.33;93042.72;4961012;28;7285;-61
2023/10/25 04:36:06;;;;;;;;;;;;;;;26.15;43.35;93037.78;4969373;28;7063;-61
2023/10/25 04:38:42;;;;;;;;;;;;;;;26.13;43.39;93034.84;4970593;28;7720;-61
2023/10/25 04:41:08;;;;;;;;;;;;;;;26.11;43.79;93027.13;4962083;28;7212;-61
2023/10/25 04:43:36;;;;;;;;;;;;;;;26.12;43.14;93025.09;4972823;28;7308;-61
2023/10/25 04:46:06;;;;;;;;;;;;;;;26.09;43.58;93024.19;4969294;28;7249;-60
2023/10/25 04:48:37;;;;;;;;;;;;;;;26.08;43.82;93025.44;4972635;28;8820;-60
2023/10/25 04:51:04;;;;;;;;;;;;;;;26.11;43.76;93021.63;4959737;28;8739;-60
2023/10/25 04:54:08;;;;;;;;;;;;;;;26.12;43.70;93022.34;4963806;28;7949;-62
2023/10/25 04:56:43;;;;;;;;;;;;;;;26.08;43.20;93022.69;4937662;28;7238;-56
2023/10/25 04:59:11;;;;;;;;;;;;;;;26.10;43.30;93014.63;4949013;28;7241;-54
2023/10/25 05:01:43;;;;;;;;;;;;;;;26.11;43.68;93004.34;4951985;28;7140;-55
2023/10/25 05:04:11;;;;;;;;;;;;;;;26.09;43.06;92999.38;4966645;28;9383;-55
2023/10/25 05:06:40;;;;;;;;;;;;;;;26.05;43.57;93001.00;4954065;28;9174;-55
2023/10/25 05:09:06;;;;;;;;;;;;;;;26.07;43.17;93003.94;4951418;28;7514;-54
2023/10/25 05:11:35;;;;;;;;;;;;;;;26.07;43.03;93007.44;4967834;28;7046;-55
2023/10/25 05:14:31;;;;;;;;;;;;;;;26.04;43.25;93000.25;4965078;28;7238;-55
2023/10/25 05:17:05;;;;;;;;;;;;;;;26.07;42.95;92998.41;4894992;29;9096;-55
2023/10/25 05:19:35;;;;;;;;;;;;;;;26.02;43.42;92985.53;4874091;29;7076;-55
2023/10/25 05:22:26;;;;;;;;;;;;;;;26.07;43.48;92976.38;4876380;29;8849;-55
2023/10/25 05:25:05;;;;;;;;;;;;;;;26.07;43.33;92968.84;4892875;29;7063;-54
2023/10/25 05:27:33;;;;;;;;;;;;;;;26.08;43.11;92967.59;4931832;28;7269;-55
2023/10/25 05:30:03;;;;;;;;;;;;;;;26.10;43.02;92969.78;4951768;28;8751;-56
2023/10/25 05:32:35;;;;;;;;;;;;;;;26.14;43.86;92970.19;4926627;28;9178;-55
2023/10/25 05:35:05;;;;;;;;;;;;;;;26.16;43.38;92978.63;4935734;28;7314;-55
2023/10/25 05:37:32;;;;;;;;;;;;;;;26.19;43.27;92987.81;4937071;28;6989;-55
2023/10/25 05:39:58;;;;;;;;;;;;;;;26.22;43.09;92981.19;4937621;28;6991;-54
2023/10/25 05:42:27;;;;;;;;;;;;;;;26.24;42.89;92981.38;4953405;28;7158;-55
2023/10/25 05:44:57;;;;;;;;;;;;;;;26.25;42.59;92977.38;4950334;28;8903;-54
2023/10/25 05:47:26;;;;;;;;;;;;;;;26.25;42.88;92969.09;4949267;28;7341;-55
2023/10/25 05:49:53;;;;;;;;;;;;;;;26.26;43.19;92965.78;4945426;28;8778;-55
2023/10/25 05:52:20;;;;;;;;;;;;;;;26.24;42.72;92962.09;4955828;28;7121;-55
2023/10/25 05:54:51;;;;;;;;;;;;;;;26.27;42.78;92964.50;5034076;28;8772;-55
2023/10/25 05:57:47;;;;;;;;;;;;;;;26.28;42.53;92965.97;5026701;28;7395;-55
2023/10/25 06:00:14;;;;;;;;;;;;;;;26.26;42.87;92956.78;5009216;28;9047;-55
2023/10/25 06:03:00;;;;;;;;;;;;;;;26.31;42.73;92972.41;4965872;28;8737;-55
2023/10/25 06:05:37;;;;;;;;;;;;;;;26.32;42.86;92968.38;4985981;28;7169;-66
2023/10/25 06:08:26;;;;;;;;;;;;;;;26.33;42.31;92976.09;4996528;28;9018;-66
2023/10/25 06:11:00;;;;;;;;;;;;;;;26.31;43.26;92970.38;5002859;28;7138;-66
2023/10/25 06:13:36;;;;;;;;;;;;;;;26.34;42.50;92976.84;5011083;28;7070;-66
2023/10/25 06:16:05;;;;;;;;;;;;;;;26.35;42.39;92978.28;4970043;28;7233;-66
2023/10/25 06:19:05;;;;;;;;;;;;;;;26.33;43.03;92976.09;5003382;28;7239;-66
2023/10/25 06:21:57;;;;;;;;;;;;;;;26.34;42.41;92974.06;4960280;28;9517;-66
2023/10/25 06:24:33;;;;;;;;;;;;;;;26.35;42.23;92984.53;4956449;28;6980;-66
2023/10/25 06:27:11;;;;;;;;;;;;;;;26.37;42.22;92984.72;4956208;28;7326;-66
2023/10/25 06:29:47;;;;;;;;;;;;;;;26.38;42.74;92977.19;4950199;28;7356;-66
2023/10/25 06:32:15;;;;;;;;;;;;;;;26.37;42.74;92976.47;4964277;28;7193;-66
2023/10/25 06:35:07;;;;;;;;;;;;;;;26.37;42.58;92978.47;4949215;28;8740;-66
2023/10/25 06:37:35;;;;;;;;;;;;;;;26.35;42.94;92983.81;4987439;28;7008;-66
2023/10/25 06:40:12;;;;;;;;;;;;;;;26.37;42.64;92983.97;5002760;28;7124;-66
2023/10/25 06:43:07;;;;;;;;;;;;;;;26.38;42.37;92982.72;4996677;28;7827;-66
2023/10/25 06:45:34;;;;;;;;;;;;;;;26.39;42.31;92978.66;4959646;28;7175;-66
2023/10/25 06:48:10;;;;;;;;;;;;;;;26.40;41.75;92978.13;4974834;28;7053;-66
2023/10/25 06:50:58;;;;;;;;;;;;;;;26.43;41.99;92979.03;4959027;28;7257;-66
2023/10/25 06:53:38;;;;;;;;;;;;;;;26.46;42.21;92984.19;4966171;28;9301;-66
2023/10/25 06:56:16;;;;;;;;;;;;;;;26.54;42.06;92984.19;4965842;28;7368;-67
2023/10/25 06:58:44;;;;;;;;;;;;;;;26.57;41.80;92981.06;4975019;28;7254;-66
2023/10/25 07:01:13;;;;;;;;;;;;;;;26.60;41.66;92982.72;4965490;28;7191;-66
2023/10/25 07:03:49;;;;;;;;;;;;;;;26.60;41.74;92977.19;4974247;28;7296;-67
2023/10/25 07:06:24;;;;;;;;;;;;;;;26.68;41.70;92979.97;4969197;28;7245;-66
2023/10/25 07:09:04;;;;;;;;;;;;;;;26.69;41.87;92971.13;4960160;28;7289;-66
2023/10/25 07:11:43;;;;;;;;;;;;;;;26.74;41.61;92969.50;4971123;28;7375;-67
2023/10/25 07:14:19;;;;;;;;;;;;;;;26.76;41.37;92967.69;4974503;28;7017;-63
2023/10/25 07:16:45;;;;;;;;;;;;;;;26.78;41.23;92958.84;4966521;28;8658;-63
2023/10/25 07:19:11;;;;;;;;;;;;;;;26.79;41.30;92943.78;4958097;28;7679;-63
2023/10/25 07:21:39;;;;;;;;;;;;;;;26.85;41.26;92949.81;4986600;28;7308;-63
2023/10/25 07:24:07;;;;;;;;;;;;;;;26.87;41.39;92959.03;5047806;28;7617;-63
2023/10/25 07:26:33;;;;;;;;;;;;;;;26.88;41.84;92954.25;5035066;28;9703;-63
2023/10/25 07:29:01;;;;;;;;;;;;;;;26.88;41.25;92952.22;5049272;28;8531;-63
2023/10/25 07:31:31;;;;;;;;;;;;;;;26.92;41.34;92952.56;5017024;28;7164;-63
2023/10/25 07:34:07;;;;;;;;;;;;;;;26.93;41.17;92945.03;5035910;28;7139;-63
2023/10/25 07:36:42;;;;;;;;;;;;;;;26.96;40.66;92945.94;5050436;28;8738;-63
2023/10/25 07:39:08;;;;;;;;;;;;;;;26.95;41.14;92945.22;5033639;28;7168;-63
2023/10/25 07:41:53;;;;;;;;;;;;;;;26.99;41.24;92950.38;5046595;28;6998;-63
2023/10/25 07:44:34;;;;;;;;;;;;;;;26.99;41.13;92945.56;5031734;28;8774;-63
2023/10/25 07:47:35;;;;;;;;;;;;;;;26.98;41.32;92941.34;5062513;28;7277;-64
2023/10/25 07:50:17;;;;;;;;;;;;;;;26.97;40.81;92942.63;4932032;28;8834;-63
2023/10/25 07:52:53;;;;;;;;;;;;;;;26.99;41.16;92940.03;4940990;28;8737;-63
2023/10/25 07:55:21;;;;;;;;;;;;;;;27.00;41.23;92932.50;4938259;28;7245;-63
2023/10/25 07:58:17;;;;;;;;;;;;;;;27.00;41.32;92936.00;4945346;28;9504;-63
2023/10/25 08:01:09;;;;;;;;;;;;;;;27.01;41.31;92936.75;4953426;28;8887;-63
2023/10/25 08:04:07;;;;;;;;;;;;;;;27.01;41.30;92943.00;4947442;28;7006;-64
2023/10/25 08:07:26;;;;;;;;;;;;;;;27.00;41.16;92930.50;4951095;28;9204;-64
2023/10/25 08:09:52;;;;;;;;;;;;;;;26.99;41.37;92934.53;4915312;29;7232;-63
2023/10/25 08:12:57;;;;;;;;;;;;;;;26.97;41.51;92931.59;4920578;29;9040;-63
2023/10/25 08:15:37;;;;;;;;;;;;;;;26.95;41.18;92923.13;4851958;29;9131;-63
2023/10/25 08:18:04;;;;;;;;;;;;;;;26.96;41.20;92923.88;4841360;29;7626;-63
2023/10/25 08:20:49;;;;;;;;;;;;;;;26.95;41.43;92925.91;4849815;29;7231;-64
2023/10/25 08:23:37;;;;;;;;;;;;;;;26.94;41.33;92926.47;4854900;29;7574;-62
2023/10/25 08:26:14;;;;;;;;;;;;;;;26.92;41.43;92936.00;4907360;29;7330;-63
2023/10/25 08:28:54;;;;;;;;;;;;;;;26.92;41.70;92940.81;4907129;29;7107;-64
2023/10/25 08:31:21;;;;;;;;;;;;;;;26.90;41.80;92930.31;4891541;29;8205;-64
2023/10/25 08:33:57;;;;;;;;;;;;;;;26.90;41.69;92930.31;4899493;29;6994;-64
2023/10/25 08:36:56;;;;;;;;;;;;;;;26.92;41.86;92912.47;4901044;29;7219;-64
2023/10/25 08:39:33;;;;;;;;;;;;;;;26.91;42.01;92911.75;4847735;29;9484;-63
2023/10/25 08:42:14;;;;;;;;;;;;;;;26.90;42.52;92902.72;4854330;29;7194;-63
2023/10/25 08:44:42;;;;;;;;;;;;;;;26.90;42.49;92888.22;4861321;29;9049;-64
2023/10/25 08:47:11;;;;;;;;;;;;;;;26.87;42.42;92883.78;4894175;29;7075;-63
2023/10/25 08:49:39;;;;;;;;;;;;;;;26.88;42.22;92886.00;4948302;28;8230;-64
2023/10/25 08:52:25;;;;;;;;;;;;;;;26.88;42.04;92890.78;4948605;28;7224;-64
2023/10/25 08:55:01;;;;;;;;;;;;;;;26.87;42.34;92883.78;4940084;28;7263;-64
2023/10/25 08:57:30;;;;;;;;;;;;;;;26.86;42.16;92896.13;4972616;28;9253;-64
2023/10/25 09:00:09;;;;;;;;;;;;;;;26.88;43.07;92907.34;4979025;28;9241;-65
2023/10/25 09:02:53;;;;;;;;;;;;;;;26.84;43.45;92907.72;4953774;28;7089;-63
2023/10/25 09:05:41;;;;;;;;;;;;;;;26.85;42.69;92898.16;4939127;28;7203;-62
2023/10/25 09:08:24;;;;;;;;;;;;;;;26.85;42.54;92902.94;4964263;28;8939;-62
2023/10/25 09:11:03;;;;;;;;;;;;;;;26.83;42.98;92900.00;4959458;28;8804;-62
2023/10/25 09:13:33;;;;;;;;;;;;;;;26.85;42.54;92902.94;4978683;28;6989;-62
2023/10/25 09:16:04;;;;;;;;;;;;;;;26.85;42.61;92889.13;5010068;28;8826;-62
2023/10/25 09:18:38;;;;;;;;;;;;;;;26.84;42.68;92882.88;5032995;28;8562;-62
2023/10/25 09:21:08;;;;;;;;;;;;;;;26.83;42.50;92889.69;5037685;28;7025;-62
2023/10/25 09:23:34;;;;;;;;;;;;;;;26.84;42.61;92885.63;5050052;28;7971;-62
2023/10/25 09:26:18;;;;;;;;;;;;;;;26.84;42.38;92893.91;5059687;28;9252;-62
2023/10/25 09:29:00;;;;;;;;;;;;;;;26.84;42.49;92890.41;5018444;28;7874;-62
2023/10/25 09:31:30;;;;;;;;;;;;;;;26.82;42.72;92888.22;5034367;28;7280;-62
2023/10/25 09:34:08;;;;;;;;;;;;;;;26.82;42.76;92870.94;5052944;28;6994;-63
2023/10/25 09:36:35;;;;;;;;;;;;;;;26.80;42.37;92865.22;5028973;28;7391;-63
2023/10/25 09:39:01;;;;;;;;;;;;;;;26.80;42.28;92862.47;5044889;28;7232;-63
2023/10/25 09:41:36;;;;;;;;;;;;;;;26.80;42.57;92870.75;5038728;28;7226;-63
2023/10/25 09:44:18;;;;;;;;;;;;;;;26.80;42.49;92868.00;5040702;28;9061;-63
2023/10/25 09:46:59;;;;;;;;;;;;;;;26.79;42.69;92861.03;5022778;28;8742;-63
2023/10/25 09:49:33;;;;;;;;;;;;;;;26.81;42.74;92861.94;5039800;28;7246;-63
2023/10/25 09:52:23;;;;;;;;;;;;;;;26.79;42.76;92863.78;5033342;28;7279;-63
2023/10/25 09:55:16;;;;;;;;;;;;;;;26.77;42.89;92856.03;5028945;28;9410;-64
2023/10/25 09:57:46;;;;;;;;;;;;;;;26.78;43.10;92854.03;5027890;28;8992;-64
2023/10/25 10:00:14;;;;;;;;;;;;;;;26.77;43.19;92849.81;5032375;28;7224;-63
2023/10/25 10:02:58;;;;;;;;;;;;;;;26.77;43.09;92858.78;5048997;28;8744;-64
2023/10/25 10:05:58;;;;;;;;;;;;;;;26.79;43.21;92844.47;5042530;28;8460;-63
2023/10/25 10:09:10;;;;;;;;;;;;;;;26.79;43.27;92842.44;5032109;28;7418;-63
2023/10/25 10:12:02;;;;;;;;;;;;;;;26.80;43.41;92840.41;4949485;28;8743;-63
2023/10/25 10:14:31;;;;;;;;;;;;;;;26.80;43.24;92835.63;4956216;28;8800;-65
2023/10/25 10:17:13;;;;;;;;;;;;;;;26.80;43.41;92829.38;4944374;28;7183;-65
2023/10/25 10:19:43;;;;;;;;;;;;;;;26.81;43.34;92819.81;4960182;28;6982;-64
2023/10/25 10:22:21;;;;;;;;;;;;;;;26.84;43.44;92829.72;4961202;28;7274;-64
2023/10/25 10:24:56;;;;;;;;;;;;;;;26.83;43.45;92829.00;4962064;28;7431;-64
2023/10/25 10:28:04;;;;;;;;;;;;;;;26.81;43.33;92826.06;4955333;28;9036;-65
2023/10/25 10:30:29;;;;;;;;;;;;;;;26.82;43.68;92824.03;4915520;29;7400;-64
2023/10/25 10:32:57;;;;;;;;;;;;;;;26.80;43.46;92829.38;4916277;29;7122;-64
2023/10/25 10:35:25;;;;;;;;;;;;;;;26.81;43.39;92825.34;4925968;29;7175;-65
2023/10/25 10:37:58;;;;;;;;;;;;;;;26.80;43.52;92818.34;4924434;29;7127;-65
2023/10/25 10:40:24;;;;;;;;;;;;;;;26.79;43.23;92811.38;4922638;29;7048;-65
2023/10/25 10:42:59;;;;;;;;;;;;;;;26.78;43.75;92810.63;4916949;29;7185;-64
2023/10/25 10:45:29;;;;;;;;;;;;;;;26.78;43.60;92807.88;4946613;28;8180;-61
2023/10/25 10:48:25;;;;;;;;;;;;;;;26.79;43.79;92800.34;4936675;28;7177;-61
2023/10/25 10:51:16;;;;;;;;;;;;;;;26.81;43.40;92811.53;4930275;29;7107;-61
2023/10/25 10:53:52;;;;;;;;;;;;;;;26.81;43.57;92795.00;4945626;28;8944;-61
2023/10/25 10:56:20;;;;;;;;;;;;;;;26.82;43.73;92785.41;4924313;29;7451;-61
2023/10/25 10:58:50;;;;;;;;;;;;;;;26.78;43.89;92782.31;4934063;28;7237;-60
2023/10/25 11:01:23;;;;;;;;;;;;;;;26.78;43.79;92785.81;4995853;28;7183;-60
2023/10/25 11:03:56;;;;;;;;;;;;;;;26.82;43.71;92775.13;5031194;28;7498;-60
2023/10/25 11:06:24;;;;;;;;;;;;;;;26.81;43.71;92753.63;5047524;28;8948;-60
2023/10/25 11:08:57;;;;;;;;;;;;;;;26.79;43.91;92751.41;5047189;28;9118;-60
2023/10/25 11:11:28;;;;;;;;;;;;;;;26.76;43.76;92752.53;5051732;28;9033;-61
2023/10/25 11:13:54;;;;;;;;;;;;;;;26.79;43.62;92747.91;5042658;28;7255;-60
2023/10/25 11:16:25;;;;;;;;;;;;;;;26.80;44.22;92755.63;5055421;28;7463;-60
2023/10/25 11:18:53;;;;;;;;;;;;;;;26.81;43.16;92751.59;5047692;28;8783;-60
2023/10/25 11:21:21;;;;;;;;;;;;;;;26.84;43.87;92753.22;5031092;28;7249;-61
2023/10/25 11:23:48;;;;;;;;;;;;;;;26.85;43.91;92737.41;5040889;28;6996;-61
2023/10/25 11:26:18;;;;;;;;;;;;;;;26.85;43.19;92740.91;5038069;28;6996;-60
2023/10/25 11:28:44;;;;;;;;;;;;;;;26.85;43.47;92734.66;5057950;28;7468;-60
2023/10/25 11:31:13;;;;;;;;;;;;;;;26.78;43.20;92719.59;5037697;28;7077;-61
2023/10/25 11:33:55;;;;;;;;;;;;;;;26.83;43.37;92728.97;5052479;28;7449;-60
2023/10/25 11:36:22;;;;;;;;;;;;;;;26.85;43.47;92726.38;5034783;28;7275;-61
2023/10/25 11:38:49;;;;;;;;;;;;;;;26.83;43.30;92723.44;5050397;28;7415;-61
2023/10/25 11:41:15;;;;;;;;;;;;;;;26.85;43.24;92712.59;5030114;28;6998;-61
2023/10/25 11:43:42;;;;;;;;;;;;;;;26.80;43.55;92697.72;5033203;28;6974;-61
2023/10/25 11:46:08;;;;;;;;;;;;;;;26.81;43.54;92698.44;5027117;28;7278;-61
2023/10/25 11:48:35;;;;;;;;;;;;;;;26.81;43.09;92698.44;5053121;28;6993;-61
2023/10/25 11:51:04;;;;;;;;;;;;;;;26.81;43.32;92695.69;5044745;28;7002;-61
2023/10/25 11:53:32;;;;;;;;;;;;;;;26.79;43.39;92698.28;5052026;28;7730;-63
2023/10/25 11:56:12;;;;;;;;;;;;;;;26.76;43.49;92677.31;5044168;28;7246;-63
2023/10/25 11:59:10;;;;;;;;;;;;;;;26.78;43.47;92683.75;5034911;28;7108;-62
2023/10/25 12:01:45;;;;;;;;;;;;;;;26.76;43.44;92675.28;4955026;28;7098;-63
2023/10/25 12:04:13;;;;;;;;;;;;;;;26.78;43.24;92660.94;4960036;28;9167;-63
2023/10/25 12:06:56;;;;;;;;;;;;;;;26.78;43.41;92664.44;4960708;28;7350;-63
2023/10/25 12:09:23;;;;;;;;;;;;;;;26.77;42.85;92667.75;4972161;28;7217;-62
2023/10/25 12:11:59;;;;;;;;;;;;;;;26.78;43.02;92667.19;4959755;28;7222;-63
2023/10/25 12:14:30;;;;;;;;;;;;;;;26.78;43.45;92680.25;4957804;28;9172;-62
2023/10/25 12:17:06;;;;;;;;;;;;;;;26.78;43.45;92680.25;4966909;28;9174;-62
2023/10/25 12:19:39;;;;;;;;;;;;;;;26.77;43.36;92662.25;4949770;28;7337;-63
2023/10/25 12:22:18;;;;;;;;;;;;;;;26.77;43.45;92667.75;4952682;28;7223;-63
2023/10/25 12:25:14;;;;;;;;;;;;;;;26.76;43.25;92669.03;4972613;28;7352;-62
2023/10/25 12:27:48;;;;;;;;;;;;;;;26.76;43.30;92683.56;4911974;29;9090;-62
2023/10/25 12:30:14;;;;;;;;;;;;;;;26.75;43.12;92689.66;4918412;29;7233;-62
2023/10/25 12:32:41;;;;;;;;;;;;;;;26.74;43.20;92693.69;4902364;29;7597;-62
2023/10/25 12:35:08;;;;;;;;;;;;;;;26.75;43.35;92700.69;4926257;29;9123;-62
2023/10/25 12:37:43;;;;;;;;;;;;;;;26.74;43.27;92701.97;4925840;28;7047;-62
2023/10/25 12:40:12;;;;;;;;;;;;;;;26.73;42.75;92695.00;4956307;28;6995;-62
2023/10/25 12:42:59;;;;;;;;;;;;;;;26.69;43.09;92692.56;4973588;28;7234;-62
2023/10/25 12:45:37;;;;;;;;;;;;;;;26.73;42.83;92700.50;4957355;28;7203;-62
2023/10/25 12:48:05;;;;;;;;;;;;;;;26.72;43.14;92691.47;4962742;28;7272;-62
2023/10/25 12:50:37;;;;;;;;;;;;;;;26.73;42.82;92686.72;4957565;28;7013;-62
2023/10/25 12:53:04;;;;;;;;;;;;;;;26.74;42.89;92675.13;4954533;28;8601;-62
2023/10/25 12:55:49;;;;;;;;;;;;;;;26.74;43.35;92661.34;4957073;28;7461;-62
2023/10/25 12:58:34;;;;;;;;;;;;;;;26.72;43.17;92669.41;4950107;28;7280;-62
2023/10/25 13:01:02;;;;;;;;;;;;;;;26.69;43.32;92673.28;4951769;28;9729;-62
2023/10/25 13:04:00;;;;;;;;;;;;;;;26.70;43.21;92672.00;4975803;28;7062;-60
2023/10/25 13:06:31;;;;;;;;;;;;;;;26.69;43.19;92676.03;4972732;28;8875;-63
2023/10/25 13:09:13;;;;;;;;;;;;;;;26.70;42.76;92671.25;4963261;28;9056;-64
2023/10/25 13:11:52;;;;;;;;;;;;;;;26.68;43.40;92684.88;4971972;28;7019;-64
2023/10/25 13:14:20;;;;;;;;;;;;;;;26.66;42.64;92679.91;4972987;28;7289;-64
2023/10/25 13:16:48;;;;;;;;;;;;;;;26.66;43.58;92649.59;4965654;28;7290;-64
2023/10/25 13:19:30;;;;;;;;;;;;;;;26.66;43.06;92651.59;4952391;28;6992;-64
2023/10/25 13:21:56;;;;;;;;;;;;;;;26.66;42.96;92649.59;4971895;28;7008;-64
2023/10/25 13:24:25;;;;;;;;;;;;;;;26.68;43.00;92646.25;4974032;28;8768;-64
2023/10/25 13:26:52;;;;;;;;;;;;;;;26.63;43.02;92661.72;4944913;28;7100;-63
2023/10/25 13:29:18;;;;;;;;;;;;;;;26.65;43.33;92648.09;4971648;28;6980;-63
2023/10/25 13:31:44;;;;;;;;;;;;;;;26.66;43.18;92651.59;4963027;28;7253;-63
2023/10/25 13:34:11;;;;;;;;;;;;;;;26.67;43.09;92656.56;4972939;28;7826;-63
2023/10/25 13:36:37;;;;;;;;;;;;;;;26.67;43.56;92647.53;4950321;28;9108;-64
2023/10/25 13:39:06;;;;;;;;;;;;;;;26.65;43.14;92656.38;4976620;28;8788;-63
2023/10/25 13:41:34;;;;;;;;;;;;;;;26.67;43.27;92653.06;4978876;28;7395;-63